Terminal Aerodrome Forecast
Issued by NWS Chicago, IL

Home | Current Version | Previous Version | Graphics & Text | Print | Product List | Glossary On
Versions: 1 2 3 4 5 6 7 8 9 10 11 12 13 14 15 16 17 18 19 20 21 22 23 24 25 26 27
000
FTUS43 KLOT 210910 AAA
TAFRFD
TAF AMD
KRFD 210910Z 2109/2206 VRB04KT P6SM VCSH FEW050 BKN070 OVC100
     FM211100 10005KT P6SM BKN035
     FM211800 14009KT P6SM SCT050 BKN150 PROB30 2121/2201 4SM TSRA
      OVC040CB=

USA.gov is the U.S. government's official web portal to all federal, state and local government web resources and services.